sensor_id;sensor_type;location;lat;lon;timestamp;pressure;altitude;pressure_sealevel;temperature;humidity
37450;BME280;23309;52.582;13.406;2022-07-29T00:01:25;101457.72;;;24.51;35.47
37450;BME280;23309;52.582;13.406;2022-07-29T00:03:51;101451.19;;;24.39;35.68
37450;BME280;23309;52.582;13.406;2022-07-29T00:06:17;101444.25;;;24.37;35.83
37450;BME280;23309;52.582;13.406;2022-07-29T00:08:43;101462.13;;;24.46;35.67
37450;BME280;23309;52.582;13.406;2022-07-29T00:11:09;101442.16;;;24.32;35.88
37450;BME280;23309;52.582;13.406;2022-07-29T00:13:35;101456.44;;;24.34;36.10
37450;BME280;23309;52.582;13.406;2022-07-29T00:16:04;101465.06;;;24.38;36.08
37450;BME280;23309;52.582;13.406;2022-07-29T00:18:30;101461.28;;;24.39;36.29
37450;BME280;23309;52.582;13.406;2022-07-29T00:20:56;101469.00;;;24.29;36.42
37450;BME280;23309;52.582;13.406;2022-07-29T00:23:23;101460.63;;;24.30;36.59
37450;BME280;23309;52.582;13.406;2022-07-29T00:25:49;101446.53;;;24.20;36.14
37450;BME280;23309;52.582;13.406;2022-07-29T00:28:15;101460.84;;;24.22;36.30
37450;BME280;23309;52.582;13.406;2022-07-29T00:30:41;101468.59;;;24.25;36.62
37450;BME280;23309;52.582;13.406;2022-07-29T00:33:10;101463.13;;;24.25;36.46
37450;BME280;23309;52.582;13.406;2022-07-29T00:35:36;101446.53;;;24.20;36.86
37450;BME280;23309;52.582;13.406;2022-07-29T00:38:02;101449.06;;;24.22;36.40
37450;BME280;23309;52.582;13.406;2022-07-29T00:40:28;101437.50;;;24.07;37.03
37450;BME280;23309;52.582;13.406;2022-07-29T00:42:54;101441.47;;;24.11;37.11
37450;BME280;23309;52.582;13.406;2022-07-29T00:45:21;101435.38;;;24.09;37.15
37450;BME280;23309;52.582;13.406;2022-07-29T00:47:48;101421.28;;;23.99;37.20
37450;BME280;23309;52.582;13.406;2022-07-29T00:50:17;101446.69;;;24.06;37.21
37450;BME280;23309;52.582;13.406;2022-07-29T00:52:44;101446.06;;;24.04;37.43
37450;BME280;23309;52.582;13.406;2022-07-29T00:55:13;101440.16;;;23.94;37.19
37450;BME280;23309;52.582;13.406;2022-07-29T00:57:41;101439.13;;;23.95;37.49
37450;BME280;23309;52.582;13.406;2022-07-29T01:00:11;101435.28;;;23.89;37.47
37450;BME280;23309;52.582;13.406;2022-07-29T01:02:38;101453.38;;;23.90;37.55
37450;BME280;23309;52.582;13.406;2022-07-29T01:05:06;101440.56;;;23.91;37.47
37450;BME280;23309;52.582;13.406;2022-07-29T01:07:36;101433.59;;;23.88;37.48
37450;BME280;23309;52.582;13.406;2022-07-29T01:10:04;101432.75;;;23.88;37.64
37450;BME280;23309;52.582;13.406;2022-07-29T01:12:32;101438.22;;;23.88;37.53
37450;BME280;23309;52.582;13.406;2022-07-29T01:15:00;101420.34;;;23.79;37.96
37450;BME280;23309;52.582;13.406;2022-07-29T01:17:32;101430.44;;;23.85;37.83
37450;BME280;23309;52.582;13.406;2022-07-29T01:20:05;101427.72;;;23.85;37.49
37450;BME280;23309;52.582;13.406;2022-07-29T01:23:17;101425.06;;;23.91;37.82
37450;BME280;23309;52.582;13.406;2022-07-29T01:26:18;101418.88;;;23.83;37.66
37450;BME280;23309;52.582;13.406;2022-07-29T01:29:08;101418.06;;;23.82;37.94
37450;BME280;23309;52.582;13.406;2022-07-29T01:31:45;101415.09;;;23.71;38.05
37450;BME280;23309;52.582;13.406;2022-07-29T01:34:21;101418.44;;;23.73;37.82
37450;BME280;23309;52.582;13.406;2022-07-29T01:36:54;101409.41;;;23.72;38.04
37450;BME280;23309;52.582;13.406;2022-07-29T01:39:27;101406.25;;;23.69;38.09
37450;BME280;23309;52.582;13.406;2022-07-29T01:42:01;101395.31;;;23.62;37.85
37450;BME280;23309;52.582;13.406;2022-07-29T01:44:39;101385.66;;;23.66;37.96
37450;BME280;23309;52.582;13.406;2022-07-29T01:47:13;101362.72;;;23.48;38.41
37450;BME280;23309;52.582;13.406;2022-07-29T01:49:46;101380.19;;;23.60;38.46
37450;BME280;23309;52.582;13.406;2022-07-29T01:52:20;101358.78;;;23.50;38.71
37450;BME280;23309;52.582;13.406;2022-07-29T01:54:53;101351.38;;;23.44;38.60
37450;BME280;23309;52.582;13.406;2022-07-29T01:57:27;101355.16;;;23.43;38.83
37450;BME280;23309;52.582;13.406;2022-07-29T01:59:58;101345.66;;;23.26;39.23
37450;BME280;23309;52.582;13.406;2022-07-29T02:02:26;101354.25;;;23.23;39.17
37450;BME280;23309;52.582;13.406;2022-07-29T02:04:53;101345.78;;;23.18;39.52
37450;BME280;23309;52.582;13.406;2022-07-29T02:07:23;101332.09;;;23.12;39.45
37450;BME280;23309;52.582;13.406;2022-07-29T02:09:53;101336.09;;;23.09;39.56
37450;BME280;23309;52.582;13.406;2022-07-29T02:12:20;101345.34;;;23.15;39.49
37450;BME280;23309;52.582;13.406;2022-07-29T02:14:52;101342.81;;;23.13;39.78
37450;BME280;23309;52.582;13.406;2022-07-29T02:17:25;101336.09;;;23.09;39.86
37450;BME280;23309;52.582;13.406;2022-07-29T02:19:53;101336.28;;;23.01;40.18
37450;BME280;23309;52.582;13.406;2022-07-29T02:22:22;101348.00;;;23.02;39.71
37450;BME280;23309;52.582;13.406;2022-07-29T02:24:51;101361.22;;;23.05;40.02
37450;BME280;23309;52.582;13.406;2022-07-29T02:27:18;101357.25;;;23.07;39.50
37450;BME280;23309;52.582;13.406;2022-07-29T02:29:46;101365.25;;;23.09;39.61
37450;BME280;23309;52.582;13.406;2022-07-29T02:32:14;101360.84;;;23.08;39.53
37450;BME280;23309;52.582;13.406;2022-07-29T02:34:45;101357.88;;;23.09;39.51
37450;BME280;23309;52.582;13.406;2022-07-29T02:37:13;101353.91;;;23.12;39.52
37450;BME280;23309;52.582;13.406;2022-07-29T02:39:42;101359.38;;;23.12;39.25
37450;BME280;23309;52.582;13.406;2022-07-29T02:42:14;101366.38;;;23.21;39.55
37450;BME280;23309;52.582;13.406;2022-07-29T02:44:41;101367.41;;;23.20;39.33
37450;BME280;23309;52.582;13.406;2022-07-29T02:47:16;101361.38;;;23.24;39.22
37450;BME280;23309;52.582;13.406;2022-07-29T02:49:52;101372.50;;;23.29;39.07
37450;BME280;23309;52.582;13.406;2022-07-29T02:52:24;101365.78;;;23.25;39.40
37450;BME280;23309;52.582;13.406;2022-07-29T02:54:56;101372.09;;;23.26;38.99
37450;BME280;23309;52.582;13.406;2022-07-29T02:57:31;101364.75;;;23.33;39.30
37450;BME280;23309;52.582;13.406;2022-07-29T03:00:04;101353.38;;;23.23;39.30
37450;BME280;23309;52.582;13.406;2022-07-29T03:02:35;101359.69;;;23.30;38.98
37450;BME280;23309;52.582;13.406;2022-07-29T03:05:09;101360.38;;;23.38;39.14
37450;BME280;23309;52.582;13.406;2022-07-29T03:07:37;101358.72;;;23.37;39.13
37450;BME280;23309;52.582;13.406;2022-07-29T03:10:07;101361.44;;;23.37;38.98
37450;BME280;23309;52.582;13.406;2022-07-29T03:12:33;101358.47;;;23.39;38.77
37450;BME280;23309;52.582;13.406;2022-07-29T03:15:01;101350.53;;;23.37;38.81
37450;BME280;23309;52.582;13.406;2022-07-29T03:17:27;101353.50;;;23.42;39.04
37450;BME280;23309;52.582;13.406;2022-07-29T03:19:55;101356.22;;;23.42;38.79
37450;BME280;23309;52.582;13.406;2022-07-29T03:22:25;101365.44;;;23.48;39.00
37450;BME280;23309;52.582;13.406;2022-07-29T03:24:51;101361.03;;;23.47;38.85
37450;BME280;23309;52.582;13.406;2022-07-29T03:27:17;101339.41;;;23.39;39.20
37450;BME280;23309;52.582;13.406;2022-07-29T03:29:44;101353.69;;;23.41;39.07
37450;BME280;23309;52.582;13.406;2022-07-29T03:32:10;101349.53;;;23.51;38.64
37450;BME280;23309;52.582;13.406;2022-07-29T03:34:37;101352.47;;;23.50;38.83
37450;BME280;23309;52.582;13.406;2022-07-29T03:37:03;101324.53;;;23.41;39.00
37450;BME280;23309;52.582;13.406;2022-07-29T03:39:38;101345.38;;;23.62;38.94
37450;BME280;23309;52.582;13.406;2022-07-29T03:42:06;101347.06;;;23.63;38.77
37450;BME280;23309;52.582;13.406;2022-07-29T03:44:36;101340.13;;;23.60;38.42
37450;BME280;23309;52.582;13.406;2022-07-29T03:47:04;101331.50;;;23.63;38.65
37450;BME280;23309;52.582;13.406;2022-07-29T03:49:33;101334.25;;;23.63;38.47
37450;BME280;23309;52.582;13.406;2022-07-29T03:52:03;101329.63;;;23.64;38.49
37450;BME280;23309;52.582;13.406;2022-07-29T03:54:32;101335.50;;;23.67;38.45
37450;BME280;23309;52.582;13.406;2022-07-29T03:57:01;101324.59;;;23.61;38.53
37450;BME280;23309;52.582;13.406;2022-07-29T03:59:27;101339.72;;;23.70;38.55
37450;BME280;23309;52.582;13.406;2022-07-29T04:01:54;101328.19;;;23.68;38.67
37450;BME280;23309;52.582;13.406;2022-07-29T04:04:21;101334.50;;;23.68;38.31
37450;BME280;23309;52.582;13.406;2022-07-29T04:06:47;101329.84;;;23.69;38.55
37450;BME280;23309;52.582;13.406;2022-07-29T04:09:14;101332.59;;;23.75;38.25
37450;BME280;23309;52.582;13.406;2022-07-29T04:11:43;101324.00;;;23.72;38.50
37450;BME280;23309;52.582;13.406;2022-07-29T04:14:09;101328.81;;;23.70;38.45
37450;BME280;23309;52.582;13.406;2022-07-29T04:16:35;101337.66;;;23.78;38.01
37450;BME280;23309;52.582;13.406;2022-07-29T04:19:01;101345.00;;;23.84;38.50
37450;BME280;23309;52.582;13.406;2022-07-29T04:21:28;101339.97;;;23.88;37.89
37450;BME280;23309;52.582;13.406;2022-07-29T04:23:54;101344.81;;;23.86;38.22
37450;BME280;23309;52.582;13.406;2022-07-29T04:26:20;101329.03;;;23.81;37.75
37450;BME280;23309;52.582;13.406;2022-07-29T04:28:49;101351.78;;;23.95;37.99
37450;BME280;23309;52.582;13.406;2022-07-29T04:31:15;101346.53;;;24.00;38.12
37450;BME280;23309;52.582;13.406;2022-07-29T04:33:42;101334.16;;;23.97;37.79
37450;BME280;23309;52.582;13.406;2022-07-29T04:36:08;101342.56;;;24.15;37.88
37450;BME280;23309;52.582;13.406;2022-07-29T04:38:34;101353.50;;;24.28;37.62
37450;BME280;23309;52.582;13.406;2022-07-29T04:41:00;101354.97;;;24.37;37.19
37450;BME280;23309;52.582;13.406;2022-07-29T04:43:26;101333.13;;;24.31;37.19
37450;BME280;23309;52.582;13.406;2022-07-29T04:45:55;101334.59;;;24.40;37.22
37450;BME280;23309;52.582;13.406;2022-07-29T04:48:21;101340.91;;;24.47;37.25
37450;BME280;23309;52.582;13.406;2022-07-29T04:50:47;101333.75;;;24.46;37.07
37450;BME280;23309;52.582;13.406;2022-07-29T04:53:13;101337.34;;;24.46;36.94
37450;BME280;23309;52.582;13.406;2022-07-29T04:55:39;101342.59;;;24.54;36.48
37450;BME280;23309;52.582;13.406;2022-07-29T04:58:05;101349.97;;;24.67;36.90
37450;BME280;23309;52.582;13.406;2022-07-29T05:00:32;101351.44;;;24.69;36.63
37450;BME280;23309;52.582;13.406;2022-07-29T05:03:00;101350.56;;;24.69;36.73
37450;BME280;23309;52.582;13.406;2022-07-29T05:05:26;101349.09;;;24.73;36.58
37450;BME280;23309;52.582;13.406;2022-07-29T05:07:53;101357.28;;;24.86;36.17
37450;BME280;23309;52.582;13.406;2022-07-29T05:10:21;101355.19;;;24.88;36.71
37450;BME280;23309;52.582;13.406;2022-07-29T05:12:48;101345.09;;;24.88;36.48
37450;BME280;23309;52.582;13.406;2022-07-29T05:15:14;101350.13;;;24.91;36.50
37450;BME280;23309;52.582;13.406;2022-07-29T05:17:40;101342.34;;;24.95;36.27
37450;BME280;23309;52.582;13.406;2022-07-29T05:20:10;101349.69;;;25.01;35.90
37450;BME280;23309;52.582;13.406;2022-07-29T05:22:36;101342.50;;;25.06;36.36
37450;BME280;23309;52.582;13.406;2022-07-29T05:25:03;101349.63;;;25.20;35.89
37450;BME280;23309;52.582;13.406;2022-07-29T05:27:29;101355.91;;;25.40;35.66
37450;BME280;23309;52.582;13.406;2022-07-29T05:29:55;101343.16;;;25.65;35.18
37450;BME280;23309;52.582;13.406;2022-07-29T05:32:21;101343.66;;;25.87;35.35
37450;BME280;23309;52.582;13.406;2022-07-29T05:34:48;101327.47;;;25.86;34.73
37450;BME280;23309;52.582;13.406;2022-07-29T05:37:16;101337.00;;;26.14;34.33
37450;BME280;23309;52.582;13.406;2022-07-29T05:39:42;101328.31;;;26.17;34.60
37450;BME280;23309;52.582;13.406;2022-07-29T05:42:09;101326.38;;;26.24;34.41
37450;BME280;23309;52.582;13.406;2022-07-29T05:44:37;101330.25;;;26.41;33.74
37450;BME280;23309;52.582;13.406;2022-07-29T05:47:03;101340.66;;;26.51;34.26
37450;BME280;23309;52.582;13.406;2022-07-29T05:49:29;101340.00;;;26.55;33.82
37450;BME280;23309;52.582;13.406;2022-07-29T05:51:55;101324.44;;;26.49;34.00
37450;BME280;23309;52.582;13.406;2022-07-29T05:54:24;101337.91;;;26.57;33.94
37450;BME280;23309;52.582;13.406;2022-07-29T05:56:53;101326.94;;;26.57;33.89
37450;BME280;23309;52.582;13.406;2022-07-29T05:59:19;101341.22;;;26.66;33.37
37450;BME280;23309;52.582;13.406;2022-07-29T06:01:45;101333.22;;;26.64;33.36
37450;BME280;23309;52.582;13.406;2022-07-29T06:04:11;101348.09;;;26.75;33.57
37450;BME280;23309;52.582;13.406;2022-07-29T06:06:37;101349.84;;;26.87;33.52
37450;BME280;23309;52.582;13.406;2022-07-29T06:09:03;101346.41;;;26.92;32.99
37450;BME280;23309;52.582;13.406;2022-07-29T06:11:32;101354.34;;;27.00;32.54
37450;BME280;23309;52.582;13.406;2022-07-29T06:13:58;101353.84;;;27.09;32.81
37450;BME280;23309;52.582;13.406;2022-07-29T06:16:24;101345.97;;;27.13;32.45
37450;BME280;23309;52.582;13.406;2022-07-29T06:18:50;101338.19;;;27.10;32.55
37450;BME280;23309;52.582;13.406;2022-07-29T06:21:16;101343.38;;;27.18;32.43
37450;BME280;23309;52.582;13.406;2022-07-29T06:23:43;101353.03;;;27.27;31.94
37450;BME280;23309;52.582;13.406;2022-07-29T06:26:10;101360.03;;;27.41;32.01
37450;BME280;23309;52.582;13.406;2022-07-29T06:28:39;101346.09;;;27.72;31.64
37450;BME280;23309;52.582;13.406;2022-07-29T06:31:06;101348.28;;;27.99;31.27
37450;BME280;23309;52.582;13.406;2022-07-29T06:33:32;101309.09;;;28.04;30.91
37450;BME280;23309;52.582;13.406;2022-07-29T06:35:58;101316.81;;;28.25;30.57
37450;BME280;23309;52.582;13.406;2022-07-29T06:38:24;101321.25;;;28.37;30.56
37450;BME280;23309;52.582;13.406;2022-07-29T06:40:50;101337.19;;;28.58;30.36
37450;BME280;23309;52.582;13.406;2022-07-29T06:43:19;101341.13;;;28.62;30.27
37450;BME280;23309;52.582;13.406;2022-07-29T06:45:48;101321.66;;;28.52;30.44
37450;BME280;23309;52.582;13.406;2022-07-29T06:48:14;101335.88;;;28.72;30.14
37450;BME280;23309;52.582;13.406;2022-07-29T06:50:40;101343.88;;;28.85;29.75
37450;BME280;23309;52.582;13.406;2022-07-29T06:53:06;101321.78;;;28.80;30.03
37450;BME280;23309;52.582;13.406;2022-07-29T06:55:32;101345.44;;;29.04;29.83
37450;BME280;23309;52.582;13.406;2022-07-29T06:57:58;101338.63;;;29.07;29.54
37450;BME280;23309;52.582;13.406;2022-07-29T07:00:25;101339.00;;;29.10;29.48
37450;BME280;23309;52.582;13.406;2022-07-29T07:02:53;101329.31;;;29.08;29.35
37450;BME280;23309;52.582;13.406;2022-07-29T07:05:20;101349.72;;;29.23;30.11
37450;BME280;23309;52.582;13.406;2022-07-29T07:07:46;101355.19;;;29.46;29.65
37450;BME280;23309;52.582;13.406;2022-07-29T07:10:12;101342.63;;;29.62;28.94
37450;BME280;23309;52.582;13.406;2022-07-29T07:12:38;101357.09;;;29.85;28.88
37450;BME280;23309;52.582;13.406;2022-07-29T07:15:06;101353.63;;;29.90;28.61
37450;BME280;23309;52.582;13.406;2022-07-29T07:17:32;101354.72;;;30.17;27.54
37450;BME280;23309;52.582;13.406;2022-07-29T07:20:01;101346.13;;;30.46;27.65
37450;BME280;23309;52.582;13.406;2022-07-29T07:22:27;101353.47;;;30.90;27.22
37450;BME280;23309;52.582;13.406;2022-07-29T07:24:53;101364.28;;;31.51;26.30
37450;BME280;23309;52.582;13.406;2022-07-29T07:27:19;101345.94;;;31.88;25.69
37450;BME280;23309;52.582;13.406;2022-07-29T07:29:45;101345.00;;;32.31;25.31
37450;BME280;23309;52.582;13.406;2022-07-29T07:32:12;101353.41;;;32.78;24.50
37450;BME280;23309;52.582;13.406;2022-07-29T07:34:38;101336.38;;;32.91;24.64
37450;BME280;23309;52.582;13.406;2022-07-29T07:37:06;101355.69;;;33.27;23.75
37450;BME280;23309;52.582;13.406;2022-07-29T07:39:32;101345.59;;;33.58;23.79
37450;BME280;23309;52.582;13.406;2022-07-29T07:41:59;101341.03;;;34.13;22.64
37450;BME280;23309;52.582;13.406;2022-07-29T07:44:25;101330.53;;;34.45;22.61
37450;BME280;23309;52.582;13.406;2022-07-29T07:46:51;101349.63;;;35.02;21.90
37450;BME280;23309;52.582;13.406;2022-07-29T07:49:17;101346.19;;;35.50;21.64
37450;BME280;23309;52.582;13.406;2022-07-29T07:51:43;101348.38;;;36.06;21.54
37450;BME280;23309;52.582;13.406;2022-07-29T07:54:12;101341.97;;;36.49;20.35
37450;BME280;23309;52.582;13.406;2022-07-29T07:56:38;101336.50;;;36.68;20.02
37450;BME280;23309;52.582;13.406;2022-07-29T07:59:04;101342.50;;;37.08;19.35
37450;BME280;23309;52.582;13.406;2022-07-29T08:01:31;101330.84;;;37.01;19.42
37450;BME280;23309;52.582;13.406;2022-07-29T08:03:57;101341.06;;;37.11;18.90
37450;BME280;23309;52.582;13.406;2022-07-29T08:06:23;101327.53;;;37.28;19.20
37450;BME280;23309;52.582;13.406;2022-07-29T08:08:50;101313.16;;;37.39;18.45
37450;BME280;23309;52.582;13.406;2022-07-29T08:11:20;101333.94;;;37.89;18.04
37450;BME280;23309;52.582;13.406;2022-07-29T08:13:46;101332.47;;;38.15;17.48
37450;BME280;23309;52.582;13.406;2022-07-29T08:16:12;101334.44;;;38.47;17.28
37450;BME280;23309;52.582;13.406;2022-07-29T08:18:40;101325.19;;;38.65;16.64
37450;BME280;23309;52.582;13.406;2022-07-29T08:21:06;101324.00;;;38.71;16.69
37450;BME280;23309;52.582;13.406;2022-07-29T08:23:33;101325.94;;;38.57;16.54
37450;BME280;23309;52.582;13.406;2022-07-29T08:25:59;101323.13;;;38.57;16.91
37450;BME280;23309;52.582;13.406;2022-07-29T08:28:28;101323.03;;;38.43;16.92
37450;BME280;23309;52.582;13.406;2022-07-29T08:30:54;101322.63;;;38.36;17.06
37450;BME280;23309;52.582;13.406;2022-07-29T08:33:20;101320.50;;;38.47;16.79
37450;BME280;23309;52.582;13.406;2022-07-29T08:35:46;101319.38;;;38.48;16.54
37450;BME280;23309;52.582;13.406;2022-07-29T08:38:13;101316.09;;;38.59;16.82
37450;BME280;23309;52.582;13.406;2022-07-29T08:40:39;101318.41;;;38.84;16.25
37450;BME280;23309;52.582;13.406;2022-07-29T08:43:06;101314.22;;;39.00;16.01
37450;BME280;23309;52.582;13.406;2022-07-29T08:45:43;101305.78;;;38.87;15.60
37450;BME280;23309;52.582;13.406;2022-07-29T08:48:09;101310.25;;;38.88;16.07
37450;BME280;23309;52.582;13.406;2022-07-29T08:50:35;101308.13;;;39.12;15.94
37450;BME280;23309;52.582;13.406;2022-07-29T08:53:03;101308.13;;;39.12;14.89
37450;BME280;23309;52.582;13.406;2022-07-29T08:55:29;101305.31;;;39.12;15.24
37450;BME280;23309;52.582;13.406;2022-07-29T08:57:56;101302.41;;;39.17;15.39
37450;BME280;23309;52.582;13.406;2022-07-29T09:00:22;101306.66;;;39.41;15.38
37450;BME280;23309;52.582;13.406;2022-07-29T09:02:57;101309.66;;;39.45;15.36
37450;BME280;23309;52.582;13.406;2022-07-29T09:05:26;101312.66;;;39.48;15.39
37450;BME280;23309;52.582;13.406;2022-07-29T09:07:52;101303.34;;;39.39;15.09
37450;BME280;23309;52.582;13.406;2022-07-29T09:10:19;101299.50;;;39.22;15.10
37450;BME280;23309;52.582;13.406;2022-07-29T09:12:45;101308.13;;;39.12;15.29
37450;BME280;23309;52.582;13.406;2022-07-29T09:15:11;101304.91;;;38.91;15.37
37450;BME280;23309;52.582;13.406;2022-07-29T09:17:42;101303.63;;;38.84;15.63
37450;BME280;23309;52.582;13.406;2022-07-29T09:20:14;101310.91;;;38.98;15.56
37450;BME280;23309;52.582;13.406;2022-07-29T09:22:41;101305.94;;;39.09;14.99
37450;BME280;23309;52.582;13.406;2022-07-29T09:25:08;101308.13;;;39.12;14.15
37450;BME280;23309;52.582;13.406;2022-07-29T09:27:34;101307.81;;;39.13;14.65
37450;BME280;23309;52.582;13.406;2022-07-29T09:30:03;101296.75;;;39.08;14.90
37450;BME280;23309;52.582;13.406;2022-07-29T09:32:29;101312.69;;;39.35;14.78
37450;BME280;23309;52.582;13.406;2022-07-29T09:35:18;101305.63;;;39.51;14.40
37450;BME280;23309;52.582;13.406;2022-07-29T09:37:45;101302.72;;;39.29;14.04
37450;BME280;23309;52.582;13.406;2022-07-29T09:40:14;101299.13;;;39.15;14.17
37450;BME280;23309;52.582;13.406;2022-07-29T09:42:40;101285.09;;;38.74;14.34
37450;BME280;23309;52.582;13.406;2022-07-29T09:45:08;101288.38;;;38.63;14.84
37450;BME280;23309;52.582;13.406;2022-07-29T09:47:43;101283.94;;;38.62;14.04
37450;BME280;23309;52.582;13.406;2022-07-29T09:50:10;101295.22;;;38.38;14.28
37450;BME280;23309;52.582;13.406;2022-07-29T09:52:47;101287.75;;;38.02;14.66
37450;BME280;23309;52.582;13.406;2022-07-29T09:55:14;101286.84;;;37.69;15.17
37450;BME280;23309;52.582;13.406;2022-07-29T09:57:40;101279.34;;;37.46;15.24
37450;BME280;23309;52.582;13.406;2022-07-29T10:00:09;101289.81;;;37.35;15.33
37450;BME280;23309;52.582;13.406;2022-07-29T10:02:38;101284.47;;;37.15;15.96
37450;BME280;23309;52.582;13.406;2022-07-29T10:05:15;101286.72;;;36.90;16.24
37450;BME280;23309;52.582;13.406;2022-07-29T10:07:50;101286.81;;;36.80;15.74
37450;BME280;23309;52.582;13.406;2022-07-29T10:10:23;101276.84;;;36.74;15.77
37450;BME280;23309;52.582;13.406;2022-07-29T10:12:55;101283.13;;;37.13;16.21
37450;BME280;23309;52.582;13.406;2022-07-29T10:15:24;101248.00;;;37.54;16.39
37450;BME280;23309;52.582;13.406;2022-07-29T10:17:52;101276.69;;;38.29;15.20
37450;BME280;23309;52.582;13.406;2022-07-29T10:20:20;101271.13;;;38.61;15.27
37450;BME280;23309;52.582;13.406;2022-07-29T10:22:50;101278.63;;;39.06;14.59
37450;BME280;23309;52.582;13.406;2022-07-29T10:25:18;101275.91;;;39.41;14.26
37450;BME280;23309;52.582;13.406;2022-07-29T10:27:46;101278.78;;;39.63;14.38
37450;BME280;23309;52.582;13.406;2022-07-29T10:30:15;101273.97;;;39.64;13.54
37450;BME280;23309;52.582;13.406;2022-07-29T10:32:56;101266.94;;;39.66;13.75
37450;BME280;23309;52.582;13.406;2022-07-29T10:35:47;101265.47;;;39.82;13.72
37450;BME280;23309;52.582;13.406;2022-07-29T10:38:45;101264.53;;;39.87;13.42
37450;BME280;23309;52.582;13.406;2022-07-29T10:41:56;101271.78;;;39.88;13.51
37450;BME280;23309;52.582;13.406;2022-07-29T10:44:25;101258.94;;;39.73;13.09
37450;BME280;23309;52.582;13.406;2022-07-29T10:46:52;101268.00;;;39.57;13.27
37450;BME280;23309;52.582;13.406;2022-07-29T10:49:21;101253.47;;;39.33;13.52
37450;BME280;23309;52.582;13.406;2022-07-29T10:52:03;101262.13;;;39.31;13.44
37450;BME280;23309;52.582;13.406;2022-07-29T10:54:50;101260.31;;;39.13;13.40
37450;BME280;23309;52.582;13.406;2022-07-29T10:57:25;101254.91;;;39.17;13.51
37450;BME280;23309;52.582;13.406;2022-07-29T11:00:29;101256.06;;;39.16;13.70
37450;BME280;23309;52.582;13.406;2022-07-29T11:02:55;101278.63;;;38.92;13.64
37450;BME280;23309;52.582;13.406;2022-07-29T11:05:22;101262.66;;;38.66;14.09
37450;BME280;23309;52.582;13.406;2022-07-29T11:08:19;101258.38;;;38.55;14.12
37450;BME280;23309;52.582;13.406;2022-07-29T11:10:49;101250.03;;;38.04;14.62
37450;BME280;23309;52.582;13.406;2022-07-29T11:13:46;101257.94;;;37.97;14.82
37450;BME280;23309;52.582;13.406;2022-07-29T11:16:14;101247.19;;;37.72;14.87
37450;BME280;23309;52.582;13.406;2022-07-29T11:19:19;101256.69;;;37.71;14.69
37450;BME280;23309;52.582;13.406;2022-07-29T11:21:46;101246.41;;;37.48;15.36
37450;BME280;23309;52.582;13.406;2022-07-29T11:24:13;101234.78;;;37.41;15.29
37450;BME280;23309;52.582;13.406;2022-07-29T11:26:43;101253.50;;;37.59;15.21
37450;BME280;23309;52.582;13.406;2022-07-29T11:29:20;101241.38;;;37.87;15.21
37450;BME280;23309;52.582;13.406;2022-07-29T11:31:51;101234.78;;;38.15;15.09
37450;BME280;23309;52.582;13.406;2022-07-29T11:34:21;101244.53;;;38.63;14.86
37450;BME280;23309;52.582;13.406;2022-07-29T11:37:33;101249.28;;;39.30;14.15
37450;BME280;23309;52.582;13.406;2022-07-29T11:40:15;101250.38;;;39.70;13.97
37450;BME280;23309;52.582;13.406;2022-07-29T11:42:50;101236.16;;;40.02;13.66
37450;BME280;23309;52.582;13.406;2022-07-29T11:45:23;101245.06;;;40.26;13.22
37450;BME280;23309;52.582;13.406;2022-07-29T11:47:52;101229.72;;;40.01;13.30
37450;BME280;23309;52.582;13.406;2022-07-29T11:50:30;101239.09;;;39.97;13.88
37450;BME280;23309;52.582;13.406;2022-07-29T11:52:57;101232.59;;;39.88;14.19
37450;BME280;23309;52.582;13.406;2022-07-29T11:55:26;101235.00;;;40.03;13.94
37450;BME280;23309;52.582;13.406;2022-07-29T11:57:57;101228.00;;;40.36;13.84
37450;BME280;23309;52.582;13.406;2022-07-29T12:00:28;101243.59;;;40.28;13.70
37450;BME280;23309;52.582;13.406;2022-07-29T12:02:55;101211.41;;;40.39;13.97
37450;BME280;23309;52.582;13.406;2022-07-29T12:05:32;101211.88;;;40.72;14.14
37450;BME280;23309;52.582;13.406;2022-07-29T12:08:13;101228.19;;;41.09;13.72
37450;BME280;23309;52.582;13.406;2022-07-29T12:10:42;101228.38;;;41.21;13.43
37450;BME280;23309;52.582;13.406;2022-07-29T12:13:11;101230.53;;;41.24;13.48
37450;BME280;23309;52.582;13.406;2022-07-29T12:15:38;101222.75;;;41.21;13.71
37450;BME280;23309;52.582;13.406;2022-07-29T12:18:13;101213.47;;;40.95;13.88
37450;BME280;23309;52.582;13.406;2022-07-29T12:20:43;101219.00;;;40.78;14.18
37450;BME280;23309;52.582;13.406;2022-07-29T12:23:13;101201.38;;;40.77;14.21
37450;BME280;23309;52.582;13.406;2022-07-29T12:25:41;101204.00;;;40.74;13.76
37450;BME280;23309;52.582;13.406;2022-07-29T12:28:13;101205.88;;;40.95;14.28
37450;BME280;23309;52.582;13.406;2022-07-29T12:30:43;101205.78;;;41.09;14.55
37450;BME280;23309;52.582;13.406;2022-07-29T12:33:16;101201.66;;;41.23;14.39
37450;BME280;23309;52.582;13.406;2022-07-29T12:35:45;101192.28;;;41.36;14.18
37450;BME280;23309;52.582;13.406;2022-07-29T12:38:12;101202.72;;;41.53;14.31
37450;BME280;23309;52.582;13.406;2022-07-29T12:40:39;101204.19;;;41.67;14.41
37450;BME280;23309;52.582;13.406;2022-07-29T12:43:13;101199.25;;;41.81;14.06
37450;BME280;23309;52.582;13.406;2022-07-29T12:45:44;101187.00;;;41.77;14.08
37450;BME280;23309;52.582;13.406;2022-07-29T12:48:11;101192.16;;;41.92;13.85
37450;BME280;23309;52.582;13.406;2022-07-29T12:50:53;101187.16;;;42.23;14.03
37450;BME280;23309;52.582;13.406;2022-07-29T12:53:19;101191.84;;;42.48;13.61